createdAt,value
2023-01-25T00:01:46.558Z,-0.20
2023-01-25T00:04:33.537Z,-0.20
2023-01-25T00:07:22.003Z,-0.20
2023-01-25T00:10:09.923Z,-0.10
2023-01-25T00:12:57.415Z,-0.20
2023-01-25T00:15:44.226Z,-0.20
2023-01-25T00:18:31.866Z,-0.20
2023-01-25T00:21:21.600Z,0.00
2023-01-25T00:24:11.715Z,-0.20
2023-01-25T00:26:58.824Z,-0.20
2023-01-25T00:29:45.873Z,-0.20
2023-01-25T00:32:43.295Z,-0.10
2023-01-25T00:35:33.003Z,-0.10
2023-01-25T00:38:29.964Z,-0.10
2023-01-25T00:41:18.290Z,-0.10
2023-01-25T00:44:05.454Z,-0.10
2023-01-25T00:47:26.620Z,-0.10
2023-01-25T00:50:13.341Z,-0.20
2023-01-25T00:53:00.348Z,-0.10
2023-01-25T00:55:53.364Z,-0.10
2023-01-25T00:58:42.326Z,-0.10
2023-01-25T01:01:29.144Z,-0.20
2023-01-25T01:04:16.370Z,-0.20
2023-01-25T01:07:03.782Z,-0.20
2023-01-25T01:10:08.734Z,-0.20
2023-01-25T01:13:01.477Z,-0.30
2023-01-25T01:16:04.712Z,-0.30
2023-01-25T01:19:05.777Z,-0.30
2023-01-25T01:21:58.043Z,-0.30
2023-01-25T01:24:52.365Z,-0.30
2023-01-25T01:27:42.928Z,-0.30
2023-01-25T01:30:38.845Z,-0.30
2023-01-25T01:33:36.280Z,-0.30
2023-01-25T01:36:37.783Z,-0.30
2023-01-25T01:39:30.010Z,-0.30
2023-01-25T01:42:22.165Z,-0.40
2023-01-25T01:45:43.216Z,-0.40
2023-01-25T01:48:39.374Z,-0.30
2023-01-25T01:51:47.122Z,-0.30
2023-01-25T01:54:47.097Z,-0.30
2023-01-25T01:57:49.988Z,-0.30
2023-01-25T02:00:47.017Z,-0.20
2023-01-25T02:03:46.114Z,-0.20
2023-01-25T02:06:45.135Z,-0.20
2023-01-25T02:09:40.762Z,-0.20
2023-01-25T02:12:32.490Z,-0.30
2023-01-25T02:15:26.408Z,-0.20
2023-01-25T02:18:18.916Z,-0.30
2023-01-25T02:21:17.336Z,-0.30
2023-01-25T02:24:15.326Z,-0.30
2023-01-25T02:27:07.826Z,-0.40
2023-01-25T02:29:55.351Z,-0.40
2023-01-25T02:32:42.690Z,-0.40
2023-01-25T02:35:43.352Z,-0.40
2023-01-25T02:38:33.906Z,-0.30
2023-01-25T02:41:26.491Z,-0.30
2023-01-25T02:44:18.418Z,-0.40
2023-01-25T02:47:06.182Z,-0.40
2023-01-25T02:49:53.927Z,-0.30
2023-01-25T02:52:42.232Z,-0.30
2023-01-25T02:55:30.850Z,-0.30
2023-01-25T02:58:24.171Z,-0.30
2023-01-25T03:01:14.877Z,-0.30
2023-01-25T03:04:02.718Z,-0.30
2023-01-25T03:06:58.336Z,-0.40
2023-01-25T03:10:01.156Z,-0.40
2023-01-25T03:12:57.542Z,-0.40
2023-01-25T03:16:01.355Z,-0.50
2023-01-25T03:19:07.339Z,-0.40
2023-01-25T03:22:06.960Z,-0.40
2023-01-25T03:30:54.914Z,-0.40
2023-01-25T03:33:41.999Z,-0.50
2023-01-25T03:36:30.656Z,-0.40
2023-01-25T03:39:17.893Z,-0.50
2023-01-25T03:42:05.128Z,-0.50
2023-01-25T03:45:14.515Z,-0.50
2023-01-25T03:48:23.175Z,-0.50
2023-01-25T03:51:22.031Z,-0.50
2023-01-25T03:54:46.082Z,-0.50
2023-01-25T03:57:47.107Z,-0.50
2023-01-25T04:00:50.272Z,-0.60
2023-01-25T04:03:51.720Z,-0.60
2023-01-25T04:06:54.790Z,-0.60
2023-01-25T04:09:56.132Z,-0.60
2023-01-25T04:12:52.228Z,-0.60
2023-01-25T04:15:53.728Z,-0.70
2023-01-25T04:19:04.607Z,-0.60
2023-01-25T04:22:04.866Z,-0.70
2023-01-25T04:25:17.215Z,-0.60
2023-01-25T04:28:24.388Z,-0.60
2023-01-25T04:31:27.636Z,-0.70
2023-01-25T04:34:26.809Z,-0.70
2023-01-25T04:37:25.462Z,-0.60
2023-01-25T04:40:32.242Z,-0.70
2023-01-25T04:43:28.804Z,-0.80
2023-01-25T04:46:42.965Z,-0.70
2023-01-25T04:49:43.740Z,-0.70
2023-01-25T04:52:48.471Z,-0.70
2023-01-25T04:56:00.524Z,-0.40
2023-01-25T04:59:09.158Z,-0.60
2023-01-25T05:02:15.608Z,-0.60
2023-01-25T05:05:20.539Z,-0.70
2023-01-25T05:08:32.086Z,-0.60
2023-01-25T05:11:41.441Z,-0.50
2023-01-25T05:18:10.055Z,-0.50
2023-01-25T05:21:12.027Z,-0.70
2023-01-25T05:24:11.616Z,-0.60
2023-01-25T05:27:10.070Z,-0.70
2023-01-25T05:30:12.435Z,-0.70
2023-01-25T05:33:06.106Z,-0.80
2023-01-25T05:36:04.839Z,-0.80
2023-01-25T05:38:59.637Z,-0.70
2023-01-25T05:42:00.823Z,-0.70
2023-01-25T05:49:00.793Z,-0.70
2023-01-25T05:52:22.296Z,-0.50
2023-01-25T05:59:24.477Z,-0.30
2023-01-25T06:02:57.336Z,-0.40
2023-01-25T06:10:03.287Z,-0.60
2023-01-25T06:13:24.616Z,-0.70
2023-01-25T06:23:03.109Z,-0.70
2023-01-25T06:25:50.223Z,-0.80
2023-01-25T06:28:38.273Z,-0.80
2023-01-25T06:31:25.176Z,-0.80
2023-01-25T06:34:12.472Z,-0.80
2023-01-25T06:37:00.863Z,-0.80
2023-01-25T06:39:47.853Z,-0.70
2023-01-25T06:42:34.947Z,-0.80
2023-01-25T06:45:22.241Z,-0.80
2023-01-25T06:48:09.096Z,-0.70
2023-01-25T06:50:58.352Z,-0.70
2023-01-25T06:53:48.193Z,-0.80
2023-01-25T06:56:35.485Z,-0.80
2023-01-25T06:59:22.493Z,-0.70
2023-01-25T07:02:11.637Z,-0.60
2023-01-25T07:04:58.815Z,-0.70
2023-01-25T07:07:47.023Z,-0.70
2023-01-25T07:10:34.955Z,-0.60
2023-01-25T07:13:21.825Z,-0.60
2023-01-25T07:16:12.343Z,-0.60
2023-01-25T07:18:59.568Z,-0.60
2023-01-25T07:21:47.218Z,-0.50
2023-01-25T07:24:34.364Z,-0.50
2023-01-25T07:27:22.939Z,-0.50
2023-01-25T07:30:11.422Z,-0.40
2023-01-25T07:33:00.827Z,-0.30
2023-01-25T07:35:48.306Z,-0.30
2023-01-25T07:38:35.662Z,-0.30
2023-01-25T07:41:22.470Z,-0.40
2023-01-25T07:44:11.647Z,-0.30
2023-01-25T07:46:58.497Z,-0.20
2023-01-25T07:49:45.260Z,-0.20
2023-01-25T07:52:32.166Z,-0.20
2023-01-25T07:55:19.259Z,-0.30
2023-01-25T07:58:06.343Z,-0.30
2023-01-25T08:00:54.848Z,-0.40
2023-01-25T08:03:41.822Z,-0.30
2023-01-25T08:06:35.917Z,-0.20
2023-01-25T08:09:22.933Z,-0.20
2023-01-25T08:12:09.948Z,-0.10
2023-01-25T08:14:56.514Z,-0.20
2023-01-25T08:17:44.706Z,-0.20
2023-01-25T08:20:31.613Z,-0.10
2023-01-25T08:23:20.432Z,-0.10
2023-01-25T08:26:09.173Z,-0.10
2023-01-25T08:28:56.276Z,0.00
2023-01-25T08:31:45.239Z,0.00
2023-01-25T08:34:33.750Z,0.00
2023-01-25T08:37:20.808Z,0.10
2023-01-25T08:40:08.991Z,0.10
2023-01-25T08:42:56.024Z,0.20
2023-01-25T08:45:42.793Z,0.20
2023-01-25T08:48:29.560Z,0.30
2023-01-25T08:51:18.456Z,0.40
2023-01-25T08:54:06.148Z,0.40
2023-01-25T08:56:53.742Z,0.60
2023-01-25T08:59:40.295Z,0.70
2023-01-25T09:02:27.485Z,0.70
2023-01-25T09:05:14.304Z,0.70
2023-01-25T09:08:02.726Z,0.60
2023-01-25T09:10:49.648Z,0.70
2023-01-25T09:13:36.871Z,0.70
2023-01-25T09:16:29.514Z,0.80
2023-01-25T09:19:16.467Z,0.80
2023-01-25T09:22:03.697Z,0.70
2023-01-25T09:24:53.990Z,0.80
2023-01-25T09:27:41.428Z,0.90
2023-01-25T09:30:40.868Z,1.10
2023-01-25T09:33:35.223Z,1.10
2023-01-25T09:36:22.231Z,1.30
2023-01-25T09:39:08.906Z,1.40
2023-01-25T09:42:21.528Z,1.50
2023-01-25T09:45:28.500Z,1.50
2023-01-25T09:48:23.405Z,1.50
2023-01-25T09:51:23.682Z,1.20
2023-01-25T09:54:11.805Z,1.40
2023-01-25T09:57:00.287Z,1.30
2023-01-25T09:59:50.860Z,1.40
2023-01-25T10:02:45.467Z,1.60
2023-01-25T10:05:38.009Z,1.50
2023-01-25T10:08:30.860Z,1.50
2023-01-25T10:11:22.646Z,1.60
2023-01-25T10:14:16.357Z,1.60
2023-01-25T10:17:10.674Z,1.40
2023-01-25T10:20:10.610Z,1.30
2023-01-25T10:23:28.416Z,1.30
2023-01-25T10:26:22.060Z,1.50
2023-01-25T10:29:15.399Z,1.60
2023-01-25T10:32:14.043Z,1.60
2023-01-25T10:35:13.739Z,1.60
2023-01-25T10:38:06.520Z,1.60
2023-01-25T10:40:59.318Z,1.70
2023-01-25T10:43:46.398Z,1.90
2023-01-25T10:46:33.375Z,2.10
2023-01-25T10:49:28.784Z,2.10
2023-01-25T10:52:18.267Z,2.20
2023-01-25T10:55:15.624Z,1.90
2023-01-25T10:58:02.655Z,1.70
2023-01-25T11:00:54.371Z,2.00
2023-01-25T11:03:44.772Z,2.30
2023-01-25T11:06:35.914Z,2.60
2023-01-25T11:09:37.627Z,2.60
2023-01-25T11:12:24.728Z,2.50
2023-01-25T11:15:26.328Z,2.30
2023-01-25T11:18:17.258Z,2.40
2023-01-25T11:21:14.928Z,2.20
2023-01-25T11:24:16.179Z,2.20
2023-01-25T11:27:20.387Z,2.10
2023-01-25T11:30:13.375Z,2.20
2023-01-25T11:33:00.319Z,2.30
2023-01-25T11:36:10.485Z,2.10
2023-01-25T11:39:14.481Z,2.20
2023-01-25T11:42:13.211Z,2.40
2023-01-25T11:45:23.236Z,2.80
2023-01-25T11:48:28.458Z,2.90
2023-01-25T11:51:23.363Z,2.90
2023-01-25T11:54:34.926Z,2.90
2023-01-25T11:57:39.892Z,2.80
2023-01-25T12:00:40.554Z,2.70
2023-01-25T12:04:22.086Z,2.50
2023-01-25T12:07:14.778Z,2.30
2023-01-25T12:10:21.940Z,2.30
2023-01-25T12:13:15.915Z,2.30
2023-01-25T12:16:14.207Z,2.30
2023-01-25T12:19:25.319Z,2.30
2023-01-25T12:22:28.423Z,2.40
2023-01-25T12:25:22.539Z,2.20
2023-01-25T12:28:17.559Z,2.40
2023-01-25T12:31:08.993Z,2.50
2023-01-25T12:34:03.206Z,2.50
2023-01-25T12:36:51.324Z,2.70
2023-01-25T12:39:46.249Z,2.80
2023-01-25T12:42:37.504Z,2.70
2023-01-25T12:45:28.100Z,2.60
2023-01-25T12:48:21.450Z,2.40
2023-01-25T12:51:09.129Z,2.50
2023-01-25T12:53:57.547Z,2.60
2023-01-25T12:56:51.865Z,2.50
2023-01-25T12:59:46.703Z,2.50
2023-01-25T13:02:51.842Z,2.50
2023-01-25T13:05:45.974Z,2.40
2023-01-25T13:08:43.489Z,2.30
2023-01-25T13:11:35.985Z,2.50
2023-01-25T13:14:36.278Z,2.70
2023-01-25T13:17:31.001Z,2.80
2023-01-25T13:20:51.982Z,2.50
2023-01-25T13:23:44.068Z,2.30
2023-01-25T13:27:13.021Z,2.30
2023-01-25T13:30:05.199Z,2.30
2023-01-25T13:32:58.299Z,2.20
2023-01-25T13:35:46.334Z,2.10
2023-01-25T13:38:37.677Z,2.00
2023-01-25T13:41:24.350Z,2.00
2023-01-25T13:44:28.178Z,2.10
2023-01-25T13:47:18.910Z,2.20
2023-01-25T13:50:18.726Z,2.10
2023-01-25T13:53:07.488Z,1.90
2023-01-25T13:55:58.960Z,1.70
2023-01-25T13:58:48.098Z,1.60
2023-01-25T14:01:37.245Z,1.70
2023-01-25T14:04:24.349Z,1.70
2023-01-25T14:07:17.315Z,1.70
2023-01-25T14:10:11.554Z,1.80
2023-01-25T14:13:01.981Z,1.80
2023-01-25T14:15:57.199Z,1.80
2023-01-25T14:18:45.359Z,1.50
2023-01-25T14:21:32.319Z,1.30
2023-01-25T14:24:20.300Z,1.30
2023-01-25T14:27:07.964Z,1.20
2023-01-25T14:29:56.394Z,1.10
2023-01-25T14:32:43.500Z,1.00
2023-01-25T14:35:43.175Z,1.00
2023-01-25T14:38:38.379Z,1.00
2023-01-25T14:41:30.911Z,1.00
2023-01-25T14:44:18.039Z,0.90
2023-01-25T14:47:31.241Z,0.90
2023-01-25T14:50:35.382Z,1.00
2023-01-25T14:53:24.301Z,0.90
2023-01-25T14:56:35.834Z,0.80
2023-01-25T14:59:28.747Z,0.80
2023-01-25T15:02:26.063Z,0.90
2023-01-25T15:05:23.546Z,0.80
2023-01-25T15:08:27.588Z,0.60
2023-01-25T15:11:38.667Z,0.80
2023-01-25T15:14:27.446Z,0.40
2023-01-25T15:17:43.036Z,0.40
2023-01-25T15:20:34.434Z,0.40
2023-01-25T15:23:25.018Z,0.60
2023-01-25T15:26:19.124Z,0.60
2023-01-25T15:29:13.701Z,0.60
2023-01-25T15:32:01.018Z,0.50
2023-01-25T15:34:48.984Z,0.60
2023-01-25T15:37:37.165Z,0.50
2023-01-25T15:40:24.375Z,0.50
2023-01-25T15:43:12.985Z,0.40
2023-01-25T15:46:01.187Z,0.30
2023-01-25T15:48:50.116Z,0.20
2023-01-25T15:51:37.094Z,0.20
2023-01-25T15:54:25.597Z,0.10
2023-01-25T15:57:20.829Z,0.10
2023-01-25T16:00:16.371Z,0.10
2023-01-25T16:03:03.716Z,0.10
2023-01-25T16:05:54.360Z,0.00
2023-01-25T16:08:41.383Z,0.00
2023-01-25T16:11:29.837Z,0.00
2023-01-25T16:14:16.577Z,0.00
2023-01-25T16:17:05.754Z,-0.10
2023-01-25T16:19:52.734Z,-0.20
2023-01-25T16:22:39.426Z,-0.10
2023-01-25T16:25:26.332Z,-0.30
2023-01-25T16:28:16.877Z,-0.30
2023-01-25T16:31:04.134Z,-0.50
2023-01-25T16:33:51.021Z,-0.80
2023-01-25T16:36:39.717Z,-0.90
2023-01-25T16:39:28.349Z,-1.00
2023-01-25T16:42:15.159Z,-1.10
2023-01-25T16:45:03.232Z,-1.10
2023-01-25T16:47:49.928Z,-1.10
2023-01-25T16:50:36.759Z,-0.90
2023-01-25T16:53:23.669Z,-1.00
2023-01-25T16:56:16.501Z,-1.10
2023-01-25T16:59:06.042Z,-1.10
2023-01-25T17:01:54.289Z,-1.20
2023-01-25T17:04:41.612Z,-1.30
2023-01-25T17:07:28.363Z,-1.30
2023-01-25T17:10:15.127Z,-1.30
2023-01-25T17:13:02.458Z,-1.30
2023-01-25T17:15:49.444Z,-1.30
2023-01-25T17:18:37.955Z,-1.30
2023-01-25T17:21:25.189Z,-1.20
2023-01-25T17:24:14.705Z,-1.20
2023-01-25T17:27:01.723Z,-1.20
2023-01-25T17:29:48.538Z,-1.10
2023-01-25T17:32:35.225Z,-1.10
2023-01-25T17:35:23.976Z,-1.20
2023-01-25T17:38:11.258Z,-1.10
2023-01-25T17:40:57.999Z,-1.10
2023-01-25T17:43:44.980Z,-1.10
2023-01-25T17:46:35.084Z,-1.00
2023-01-25T17:49:24.531Z,-0.90
2023-01-25T17:52:13.012Z,-0.90
2023-01-25T17:55:00.579Z,-0.90
2023-01-25T17:57:47.363Z,-0.80
2023-01-25T18:00:34.499Z,-0.90
2023-01-25T18:03:21.887Z,-1.00
2023-01-25T18:06:10.115Z,-1.10
2023-01-25T18:09:01.147Z,-0.90
2023-01-25T18:11:48.829Z,-1.10
2023-01-25T18:14:36.033Z,-0.90
2023-01-25T18:17:22.727Z,-1.20
2023-01-25T18:20:11.763Z,-1.20
2023-01-25T18:22:58.690Z,-1.20
2023-01-25T18:28:31.996Z,-1.20
2023-01-25T18:31:19.079Z,-1.20
2023-01-25T18:34:06.212Z,-1.10
2023-01-25T18:36:53.320Z,-1.30
2023-01-25T18:39:40.477Z,-1.30
2023-01-25T18:42:28.734Z,-1.30
2023-01-25T18:45:15.791Z,-1.30
2023-01-25T18:48:06.112Z,-1.30
2023-01-25T18:50:52.900Z,-1.20
2023-01-25T18:53:42.200Z,-1.30
2023-01-25T18:56:31.615Z,-1.20
2023-01-25T18:59:19.809Z,-1.20
2023-01-25T19:02:07.904Z,-1.20
2023-01-25T19:04:55.589Z,-1.10
2023-01-25T19:07:42.491Z,-1.10
2023-01-25T19:10:29.609Z,-1.00
2023-01-25T19:13:16.764Z,-1.10
2023-01-25T19:16:07.595Z,-0.90
2023-01-25T19:18:55.860Z,-0.80
2023-01-25T19:21:43.243Z,-0.80
2023-01-25T19:24:30.935Z,-0.80
2023-01-25T19:27:17.739Z,-0.80
2023-01-25T19:30:05.799Z,-0.80
2023-01-25T19:32:54.228Z,-0.80
2023-01-25T19:35:41.296Z,-0.80
2023-01-25T19:38:28.352Z,-0.80
2023-01-25T19:41:17.712Z,-0.80
2023-01-25T19:44:06.116Z,-0.70
2023-01-25T19:46:53.358Z,-0.70
2023-01-25T19:49:41.501Z,-0.80
2023-01-25T19:52:28.403Z,-0.80
2023-01-25T19:55:15.440Z,-0.80
2023-01-25T19:58:02.200Z,-0.80
2023-01-25T20:00:48.798Z,-0.70
2023-01-25T20:03:36.962Z,-0.80
2023-01-25T20:06:26.500Z,-0.80
2023-01-25T20:09:14.212Z,-0.80
2023-01-25T20:12:03.039Z,-0.80
2023-01-25T20:14:51.127Z,-0.80
2023-01-25T20:17:38.173Z,-1.00
2023-01-25T20:20:25.332Z,-0.90
2023-01-25T20:23:13.353Z,-0.90
2023-01-25T20:26:01.910Z,-0.90
2023-01-25T20:28:51.599Z,-0.90
2023-01-25T20:31:41.290Z,-0.90
2023-01-25T20:34:28.372Z,-0.90
2023-01-25T20:37:15.101Z,-0.90
2023-01-25T20:40:03.642Z,-0.80
2023-01-25T20:42:50.919Z,-0.80
2023-01-25T20:45:38.354Z,-0.90
2023-01-25T20:48:25.380Z,-0.90
2023-01-25T20:51:14.597Z,-1.00
2023-01-25T20:54:02.173Z,-0.90
2023-01-25T20:56:50.473Z,-1.00
2023-01-25T20:59:37.406Z,-0.90
2023-01-25T21:02:24.548Z,-1.00
2023-01-25T21:05:11.977Z,-1.00
2023-01-25T21:07:59.297Z,-1.00
2023-01-25T21:10:50.730Z,-1.10
2023-01-25T21:13:39.011Z,-1.00
2023-01-25T21:16:25.947Z,-1.00
2023-01-25T21:19:12.777Z,-1.00
2023-01-25T21:21:59.843Z,-1.00
2023-01-25T21:24:46.696Z,-1.10
2023-01-25T21:27:33.639Z,-1.10
2023-01-25T21:30:23.235Z,-1.20
2023-01-25T21:33:10.430Z,-1.10
2023-01-25T21:36:01.705Z,-1.10
2023-01-25T21:38:49.739Z,-1.00
2023-01-25T21:41:36.925Z,-1.10
2023-01-25T21:44:40.569Z,-1.20
2023-01-25T21:47:32.299Z,-1.10
2023-01-25T21:50:36.438Z,-1.20
2023-01-25T21:53:23.911Z,-1.20
2023-01-25T21:56:13.501Z,-1.20
2023-01-25T21:59:00.441Z,-1.20
2023-01-25T22:01:48.177Z,-1.20
2023-01-25T22:04:38.089Z,-1.30
2023-01-25T22:07:25.254Z,-1.30
2023-01-25T22:10:12.912Z,-1.30
2023-01-25T22:12:59.993Z,-1.40
2023-01-25T22:15:47.068Z,-1.40
2023-01-25T22:18:35.839Z,-1.50
2023-01-25T22:21:25.356Z,-1.50
2023-01-25T22:24:13.261Z,-1.50
2023-01-25T22:27:14.420Z,-1.60
2023-01-25T22:30:01.334Z,-1.50
2023-01-25T22:32:48.213Z,-1.60
2023-01-25T22:35:35.041Z,-1.60
2023-01-25T22:38:23.168Z,-1.60
2023-01-25T22:41:12.095Z,-1.50
2023-01-25T22:43:59.519Z,-1.60
2023-01-25T22:46:47.398Z,-1.70
2023-01-25T22:49:34.320Z,-1.60
2023-01-25T22:52:21.165Z,-1.60
2023-01-25T22:55:10.791Z,-1.60
2023-01-25T22:57:58.125Z,-1.60
2023-01-25T23:00:45.020Z,-1.60
2023-01-25T23:03:31.857Z,-1.80
2023-01-25T23:06:20.909Z,-1.70
2023-01-25T23:09:08.368Z,-1.70
2023-01-25T23:11:56.543Z,-1.70
2023-01-25T23:14:51.427Z,-1.70
2023-01-25T23:17:55.711Z,-1.80
2023-01-25T23:20:42.680Z,-1.70
2023-01-25T23:23:30.234Z,-1.70
2023-01-25T23:26:17.641Z,-1.80
2023-01-25T23:29:10.261Z,-1.80
2023-01-25T23:31:57.630Z,-1.70
2023-01-25T23:34:45.021Z,-1.80
2023-01-25T23:37:32.047Z,-1.90
2023-01-25T23:40:18.892Z,-1.90
2023-01-25T23:43:06.240Z,-1.90
2023-01-25T23:45:54.447Z,-1.90
2023-01-25T23:48:42.130Z,-1.90
2023-01-25T23:51:28.981Z,-1.90
2023-01-25T23:54:15.853Z,-1.90
2023-01-25T23:57:02.869Z,-1.90
2023-01-25T23:59:49.576Z,-2.00
